NCAR-RAP Real-Time Weather Data

Output produced by METARs form (20 January 2018  03:37 UTC)
found at http://weather.rap.ucar.edu/surface/
 
KAXN 200253Z AUTO 29009KT 10SM CLR 02/M01 A2965 RMK AO2 SLP056 T00171011 51023
KAXN 200153Z AUTO 29008KT 10SM CLR 02/M01 A2963 RMK AO2 SLP049 T00171011
 
KETH 200155Z AUTO 27003KT 10SM CLR 02/M02 A2968 RMK AO2
 
KMOX 200315Z AUTO 32007KT 10SM CLR 02/M01 A2966 RMK AO2
KMOX 200255Z AUTO 31008KT 10SM CLR 02/M01 A2967 RMK AO2
KMOX 200235Z AUTO 30008KT 10SM CLR 02/M01 A2965 RMK AO2
KMOX 200215Z AUTO 31008KT 10SM CLR 02/M01 A2965 RMK AO2
KMOX 200155Z AUTO 30008KT 10SM CLR 02/M01 A2964 RMK AO2
 
KVVV 200315Z AUTO 29005KT 10SM CLR 02/M02 A2967 RMK AO2
KVVV 200255Z AUTO 29005KT 10SM CLR 02/M02 A2968 RMK AO2
KVVV 200235Z AUTO 29005KT 10SM CLR 02/M02 A2967 RMK AO2
KVVV 200215Z AUTO 28006KT 10SM CLR 02/M03 A2968 RMK AO2
KVVV 200155Z AUTO 28005KT 10SM CLR 03/M02 A2967 RMK AO2
 
KAQP 200334Z AUTO 25003KT 10SM CLR 01/M02 A2968 RMK AO2
KAQP 200313Z AUTO 26004KT 10SM CLR 00/M02 A2968 RMK AO2
KAQP 200253Z AUTO 27004KT 10SM CLR 01/M02 A2968 RMK AO2
KAQP 200233Z AUTO 25005KT 10SM CLR 01/M02 A2968 RMK AO2
KAQP 200212Z AUTO 27005KT 10SM CLR 01/M02 A2967 RMK AO2
KAQP 200153Z AUTO 26005KT 10SM CLR 02/M02 A2967 RMK AO2
 
 
KHCD 200315Z AUTO 27008KT 10SM CLR 02/00 A2967 RMK AO2 T00160000
KHCD 200255Z AUTO 27007KT 10SM CLR 03/00 A2967 RMK AO2 T00250000
KHCD 200235Z AUTO 28008KT 10SM CLR 03/00 A2967 RMK AO2 T00270001
KHCD 200215Z AUTO 27010KT 10SM CLR 03/00 A2966 RMK AO2 T00250002
KHCD 200155Z AUTO 27007KT 10SM CLR 02/00 A2964 RMK AO2 T00230001
 
KGYL 200259Z AUTO 27006KT 10SM CLR 03/00 A2965 RMK AO2
KGYL 200159Z AUTO 27008KT 10SM CLR 04/01 A2963 RMK AO2
 
KLJF 200315Z AUTO 27004KT 10SM CLR 02/M01 A2967 RMK AO2
KLJF 200255Z AUTO 27004KT 10SM CLR 02/M01 A2967 RMK AO2
KLJF 200235Z AUTO 27003KT 10SM CLR 02/00 A2966 RMK AO2
KLJF 200215Z AUTO 28004KT 10SM CLR 03/00 A2965 RMK AO2
KLJF 200155Z AUTO 28004KT 10SM CLR 03/00 A2964 RMK AO2
 
KDXX 200315Z AUTO 29005KT 10SM CLR 03/M01 A2968 RMK AO2
KDXX 200255Z AUTO 28005KT 10SM CLR 03/M01 A2968 RMK AO2
KDXX 200236Z AUTO 28006KT 10SM CLR 03/M01 A2968 RMK AO2
KDXX 200215Z AUTO 28006KT 10SM CLR 03/M01 A2968 RMK AO2
KDXX 200155Z AUTO 28006KT 10SM CLR 03/M01 A2968 RMK AO2
 
KMVE 200315Z AUTO 33003KT 10SM CLR 03/M01 A2968 RMK AO2
KMVE 200255Z AUTO 31004KT 10SM CLR 03/M01 A2968 RMK AO2
KMVE 200235Z AUTO 32003KT 10SM CLR 03/M01 A2968 RMK AO2
KMVE 200215Z AUTO 32005KT 10SM CLR 03/M01 A2968 RMK AO2
KMVE 200155Z AUTO 32004KT 10SM CLR 03/M01 A2967 RMK AO2
 
KMWM 200315Z AUTO 29004KT 10SM CLR 02/M07 A2969 RMK AO2
KMWM 200255Z AUTO 29006KT 10SM CLR 02/M07 A2969 RMK AO2
KMWM 200235Z AUTO 28008KT 10SM CLR 02/M07 A2969 RMK AO2
KMWM 200215Z AUTO 28007KT 10SM CLR 02/M06 A2968 RMK AO2
KMWM 200155Z AUTO 27006KT 10SM CLR 02/M06 A2966 RMK AO2
 
KBBB 200316Z AUTO 31004KT 10SM CLR 00/M02 A2969 RMK AO2
KBBB 200255Z AUTO 28003KT 10SM CLR 01/M02 A2969 RMK AO2
KBBB 200235Z AUTO 29003KT 10SM CLR 01/M02 A2968 RMK AO2
KBBB 200215Z AUTO 30005KT 10SM CLR 01/M01 A2968 RMK AO2
KBBB 200155Z AUTO 00000KT 10SM CLR 02/M01 A2966 RMK AO2
 
KRWF 200253Z AUTO 30008KT 10SM CLR 03/M01 A2968 RMK AO2 SLP062 T00281011 53024
KRWF 200153Z AUTO 29008KT 10SM CLR 02/M01 A2966 RMK AO2 SLP055 T00171011
 
KMML 200256Z AUTO 28005KT 10SM CLR 01/M02 A2969 RMK AO2 SLP068 T00111022 51018 FZRANO
KMML 200156Z AUTO 30007KT 10SM CLR 01/M02 A2968 RMK AO2 SLP064 T00111022 FZRANO
 
KULM 200315Z AUTO 31009KT 10SM CLR 03/M01 A2968 RMK AO2
KULM 200255Z AUTO 29008KT 10SM CLR 02/M02 A2968 RMK AO2
KULM 200235Z AUTO 30010KT 10SM CLR 03/M01 A2967 RMK AO2
KULM 200215Z AUTO 29010KT 10SM CLR 02/M01 A2966 RMK AO2
KULM 200155Z AUTO 29009KT 10SM CLR 02/M01 A2964 RMK AO2
 
KPQN 200315Z AUTO 32003KT 10SM CLR 02/M01 A2970 RMK AO2
KPQN 200255Z AUTO 00000KT 10SM CLR 01/M02 A2969 RMK AO2
KPQN 200235Z AUTO 34004KT 10SM CLR 02/M01 A2968 RMK AO2
KPQN 200215Z AUTO 32004KT 10SM CLR 01/M01 A2968 RMK AO2
KPQN 200155Z AUTO 32005KT 10SM CLR 02/M01 A2968 RMK AO2
 
KOTG 200256Z AUTO 30007KT 10SM CLR 01/M02 A2970 RMK AO2 SLP076 T00111017 51021 FZRANO
KOTG 200156Z AUTO 29006KT 10SM CLR 02/M01 A2968 RMK AO2 SLP069 T00221006 FZRANO
 
KMJQ 200315Z AUTO 32007KT 10SM SCT110 02/M01 A2969 RMK AO2 PWINO
KMJQ 200255Z AUTO 31007KT 10SM SCT090 SCT110 02/00 A2969 RMK AO2 PWINO
KMJQ 200235Z AUTO 31008KT 10SM CLR 03/00 A2968 RMK AO2 PWINO
KMJQ 200215Z AUTO 31008KT 10SM CLR 03/00 A2967 RMK AO2 PWINO
KMJQ 200155Z AUTO 30008KT 10SM CLR 03/00 A2966 RMK AO2 PWINO
 
KFRM 200256Z AUTO 32010KT 10SM CLR 04/00 A2968 RMK AO2 SLP065 T00390000 53023
KFRM 200156Z AUTO 30008KT 10SM CLR 04/00 A2965 RMK AO2 SLP055 T00390000
 
KJYG 200315Z AUTO 29011KT 10SM CLR 04/M01 A2969 RMK AO2
KJYG 200255Z AUTO 28011KT 10SM CLR 04/00 A2969 RMK AO2
KJYG 200235Z AUTO 29009KT 10SM CLR 03/00 A2968 RMK AO2
KJYG 200215Z AUTO 28008KT 10SM CLR 03/00 A2967 RMK AO2
KJYG 200155Z AUTO 27007KT 10SM CLR 02/00 A2966 RMK AO2
 
KEST 200252Z AUTO 31009KT 10SM CLR 02/00 A2968 RMK AO2 SLP062 T00170000 53021
KEST 200152Z AUTO 29009KT 10SM CLR 02/00 A2965 RMK AO2 SLP054 T00170000
 
KGHW 200315Z AUTO 28006KT 10SM CLR 01/M01 A2967 RMK AO2
KGHW 200255Z AUTO 29007KT 10SM CLR 02/M01 A2966 RMK AO2
KGHW 200235Z AUTO 30008KT 10SM CLR 02/M01 A2965 RMK AO2
KGHW 200215Z AUTO 30008KT 10SM CLR 02/M01 A2964 RMK AO2
KGHW 200155Z AUTO 29009KT 10SM CLR 02/M01 A2964 RMK AO2